createdAt,value
2022-09-11T00:00:06.812Z,11.52
2022-09-11T00:02:42.702Z,11.43
2022-09-11T00:05:13.099Z,11.42
2022-09-11T00:07:42.932Z,11.39
2022-09-11T00:10:13.630Z,11.29
2022-09-11T00:12:44.527Z,11.26
2022-09-11T00:15:14.610Z,11.19
2022-09-11T00:17:44.457Z,11.11
2022-09-11T00:20:14.869Z,11.00
2022-09-11T00:22:45.063Z,10.94
2022-09-11T00:25:15.581Z,10.85
2022-09-11T00:27:45.671Z,10.81
2022-09-11T00:30:15.575Z,10.83
2022-09-11T00:32:45.484Z,10.73
2022-09-11T00:35:15.916Z,10.70
2022-09-11T00:37:46.405Z,10.66
2022-09-11T00:40:17.811Z,10.59
2022-09-11T00:42:54.728Z,10.57
2022-09-11T00:45:27.777Z,10.52
2022-09-11T00:48:01.384Z,10.50
2022-09-11T00:50:33.932Z,10.50
2022-09-11T00:53:11.126Z,10.44
2022-09-11T00:55:46.416Z,10.35
2022-09-11T00:58:22.501Z,10.35
2022-09-11T01:00:55.653Z,10.32
2022-09-11T01:03:28.036Z,10.12
2022-09-11T01:05:58.687Z,10.03
2022-09-11T01:08:28.991Z,10.13
2022-09-11T01:11:22.150Z,10.17
2022-09-11T01:14:18.664Z,10.05
2022-09-11T01:17:25.887Z,10.01
2022-09-11T01:19:56.597Z,9.98
2022-09-11T01:22:42.042Z,9.96
2022-09-11T01:25:32.954Z,9.82
2022-09-11T01:28:14.847Z,9.75
2022-09-11T01:30:58.181Z,9.78
2022-09-11T01:33:50.856Z,9.73
2022-09-11T01:36:37.155Z,9.79
2022-09-11T01:39:07.667Z,9.73
2022-09-11T01:41:49.767Z,9.64
2022-09-11T01:44:27.297Z,9.52
2022-09-11T01:46:57.952Z,9.78
2022-09-11T01:49:38.012Z,9.71
2022-09-11T01:52:18.115Z,9.65
2022-09-11T01:54:54.644Z,9.54
2022-09-11T01:57:38.227Z,9.45
2022-09-11T02:00:12.102Z,9.41
2022-09-11T02:02:54.209Z,9.27
2022-09-11T02:05:50.273Z,9.22
2022-09-11T02:08:43.148Z,9.22
2022-09-11T02:11:15.476Z,9.19
2022-09-11T02:13:52.272Z,9.13
2022-09-11T02:16:23.015Z,9.10
2022-09-11T02:19:01.996Z,8.99
2022-09-11T02:21:33.547Z,9.02
2022-09-11T02:24:05.287Z,9.03
2022-09-11T02:26:42.703Z,9.00
2022-09-11T02:29:15.282Z,9.03
2022-09-11T02:31:45.559Z,8.97
2022-09-11T02:34:17.161Z,8.96
2022-09-11T02:37:05.193Z,8.99
2022-09-11T02:40:16.211Z,8.82
2022-09-11T02:43:04.234Z,8.82
2022-09-11T02:45:39.382Z,8.82
2022-09-11T02:48:27.942Z,8.79
2022-09-11T02:51:14.199Z,8.72
2022-09-11T02:54:19.230Z,8.71
2022-09-11T02:57:08.917Z,8.66
2022-09-11T02:59:50.467Z,8.56
2022-09-11T03:02:21.415Z,8.66
2022-09-11T03:04:52.682Z,8.66
2022-09-11T03:07:24.194Z,8.58
2022-09-11T03:09:54.673Z,8.41
2022-09-11T03:12:28.384Z,8.38
2022-09-11T03:14:59.161Z,8.40
2022-09-11T03:17:30.653Z,8.44
2022-09-11T03:20:00.746Z,8.40
2022-09-11T03:22:33.153Z,8.34
2022-09-11T03:25:03.680Z,8.37
2022-09-11T03:27:34.665Z,8.37
2022-09-11T03:30:04.605Z,8.35
2022-09-11T03:32:34.610Z,8.28
2022-09-11T03:35:04.887Z,8.24
2022-09-11T03:37:34.964Z,8.20
2022-09-11T03:40:06.250Z,8.20
2022-09-11T03:42:36.661Z,8.06
2022-09-11T03:45:07.511Z,8.10
2022-09-11T03:47:38.508Z,8.13
2022-09-11T03:50:12.618Z,8.17
2022-09-11T03:52:44.585Z,8.14
2022-09-11T03:55:15.072Z,8.13
2022-09-11T03:57:45.781Z,8.07
2022-09-11T04:00:15.857Z,8.03
2022-09-11T04:02:51.937Z,8.03
2022-09-11T04:05:48.420Z,7.97
2022-09-11T04:08:18.802Z,7.93
2022-09-11T04:10:49.332Z,7.91
2022-09-11T04:13:19.537Z,7.73
2022-09-11T04:15:50.608Z,7.72
2022-09-11T04:18:20.964Z,7.77
2022-09-11T04:20:50.893Z,7.77
2022-09-11T04:23:21.329Z,7.72
2022-09-11T04:25:52.333Z,7.70
2022-09-11T04:28:23.621Z,7.69
2022-09-11T04:30:54.369Z,7.58
2022-09-11T04:33:25.923Z,7.62
2022-09-11T04:35:56.518Z,7.55
2022-09-11T04:38:26.764Z,7.49
2022-09-11T04:40:57.047Z,7.48
2022-09-11T04:43:27.148Z,7.46
2022-09-11T04:46:08.178Z,7.36
2022-09-11T04:48:39.882Z,7.31
2022-09-11T04:51:11.202Z,7.19
2022-09-11T04:53:41.578Z,7.24
2022-09-11T04:56:15.954Z,7.28
2022-09-11T04:58:58.535Z,7.31
2022-09-11T05:01:33.159Z,7.22
2022-09-11T05:04:03.631Z,7.26
2022-09-11T05:06:34.596Z,7.22
2022-09-11T05:09:10.273Z,7.15
2022-09-11T05:11:40.716Z,7.22
2022-09-11T05:14:12.868Z,7.21
2022-09-11T05:16:46.280Z,7.25
2022-09-11T05:19:19.100Z,7.26
2022-09-11T05:21:50.133Z,7.19
2022-09-11T05:24:21.119Z,7.15
2022-09-11T05:26:51.191Z,7.18
2022-09-11T05:29:21.480Z,7.11
2022-09-11T05:32:02.806Z,7.07
2022-09-11T05:34:33.238Z,6.98
2022-09-11T05:37:03.600Z,6.94
2022-09-11T05:39:39.231Z,6.95
2022-09-11T05:42:11.496Z,6.95
2022-09-11T05:44:45.400Z,6.98
2022-09-11T05:47:16.034Z,6.87
2022-09-11T05:49:48.923Z,6.84
2022-09-11T05:52:19.882Z,6.86
2022-09-11T05:54:51.173Z,6.84
2022-09-11T05:57:21.878Z,6.76
2022-09-11T05:59:53.531Z,6.63
2022-09-11T06:02:24.295Z,6.58
2022-09-11T06:04:57.742Z,6.60
2022-09-11T06:07:28.332Z,6.58
2022-09-11T06:10:02.832Z,6.60
2022-09-11T06:12:36.292Z,6.52
2022-09-11T06:15:20.300Z,6.46
2022-09-11T06:17:59.407Z,6.52
2022-09-11T06:20:29.943Z,6.54
2022-09-11T06:23:04.120Z,6.45
2022-09-11T06:25:37.974Z,6.43
2022-09-11T06:28:08.681Z,6.43
2022-09-11T06:30:39.038Z,6.49
2022-09-11T06:33:12.354Z,6.42
2022-09-11T06:35:43.203Z,6.35
2022-09-11T06:38:13.439Z,6.32
2022-09-11T06:40:43.674Z,6.40
2022-09-11T06:43:16.034Z,6.36
2022-09-11T06:45:48.449Z,6.30
2022-09-11T06:48:23.432Z,6.08
2022-09-11T06:50:55.658Z,6.12
2022-09-11T06:53:26.451Z,6.21
2022-09-11T06:56:01.622Z,6.15
2022-09-11T06:58:33.140Z,6.14
2022-09-11T07:01:14.592Z,6.15
2022-09-11T07:03:54.541Z,6.14
2022-09-11T07:06:28.728Z,6.11
2022-09-11T07:09:04.460Z,6.11
2022-09-11T07:11:48.035Z,6.12
2022-09-11T07:14:24.997Z,6.09
2022-09-11T07:17:01.982Z,6.11
2022-09-11T07:19:32.115Z,6.08
2022-09-11T07:22:02.433Z,6.02
2022-09-11T07:24:34.412Z,5.99
2022-09-11T07:27:05.101Z,5.97
2022-09-11T07:29:39.113Z,5.97
2022-09-11T07:32:11.273Z,5.93
2022-09-11T07:34:42.748Z,5.91
2022-09-11T07:37:13.799Z,5.87
2022-09-11T07:39:43.840Z,5.78
2022-09-11T07:42:21.147Z,5.73
2022-09-11T07:44:52.010Z,5.75
2022-09-11T07:47:22.308Z,5.71
2022-09-11T07:49:54.486Z,5.64
2022-09-11T07:52:25.688Z,5.68
2022-09-11T07:55:02.809Z,5.74
2022-09-11T07:57:36.012Z,5.75
2022-09-11T08:00:11.449Z,5.70
2022-09-11T08:02:50.796Z,5.67
2022-09-11T08:05:31.471Z,5.67
2022-09-11T08:08:01.845Z,5.64
2022-09-11T08:10:33.209Z,5.63
2022-09-11T08:13:09.539Z,5.58
2022-09-11T08:15:49.076Z,5.60
2022-09-11T08:18:21.064Z,5.54
2022-09-11T08:20:52.580Z,5.50
2022-09-11T08:23:23.675Z,5.53
2022-09-11T08:25:55.409Z,5.53
2022-09-11T08:28:25.473Z,5.54
2022-09-11T08:31:01.381Z,5.50
2022-09-11T08:33:34.498Z,5.53
2022-09-11T08:36:08.184Z,5.57
2022-09-11T08:38:41.467Z,5.57
2022-09-11T08:41:14.121Z,5.56
2022-09-11T08:43:54.227Z,5.53
2022-09-11T08:46:32.636Z,5.56
2022-09-11T08:49:20.350Z,5.50
2022-09-11T08:51:52.660Z,5.46
2022-09-11T08:54:36.188Z,5.42
2022-09-11T08:57:55.847Z,5.40
2022-09-11T09:00:59.128Z,5.35
2022-09-11T09:03:57.593Z,5.27
2022-09-11T09:07:03.418Z,5.27
2022-09-11T09:09:47.416Z,5.23
2022-09-11T09:12:26.228Z,5.23
2022-09-11T09:15:29.326Z,5.26
2022-09-11T09:54:03.781Z,5.32
2022-09-11T09:56:38.871Z,5.37
2022-09-11T09:59:19.495Z,5.44
2022-09-11T10:01:53.163Z,5.44
2022-09-11T10:04:31.605Z,5.53
2022-09-11T10:07:12.679Z,5.60
2022-09-11T10:09:52.879Z,5.66
2022-09-11T10:12:33.322Z,5.74
2022-09-11T10:15:05.164Z,5.81
2022-09-11T10:17:38.308Z,5.84
2022-09-11T10:20:27.851Z,5.93
2022-09-11T10:22:58.682Z,6.04
2022-09-11T10:25:31.252Z,6.16
2022-09-11T10:28:18.691Z,6.56
2022-09-11T10:31:00.596Z,7.18
2022-09-11T10:33:31.337Z,7.56
2022-09-11T10:36:05.439Z,7.97
2022-09-11T10:38:47.263Z,8.41
2022-09-11T10:41:27.316Z,8.86
2022-09-11T10:44:15.631Z,9.20
2022-09-11T10:46:47.250Z,9.48
2022-09-11T10:49:25.063Z,9.74
2022-09-11T10:52:23.552Z,10.12
2022-09-11T10:55:09.721Z,10.59
2022-09-11T10:57:59.143Z,10.81
2022-09-11T11:00:33.870Z,10.90
2022-09-11T11:03:26.765Z,11.03
2022-09-11T11:06:20.586Z,11.21
2022-09-11T11:09:07.542Z,11.47
2022-09-11T11:11:57.283Z,11.61
2022-09-11T11:14:46.049Z,11.77
2022-09-11T11:17:32.955Z,12.05
2022-09-11T11:20:27.830Z,12.40
2022-09-11T11:23:16.730Z,12.61
2022-09-11T11:26:13.127Z,12.96
2022-09-11T11:29:23.099Z,13.58
2022-09-11T11:32:31.486Z,14.01
2022-09-11T11:35:33.267Z,14.32
2022-09-11T11:38:29.333Z,14.50
2022-09-11T11:41:08.487Z,14.02
2022-09-11T11:43:41.100Z,13.82
2022-09-11T11:46:13.819Z,13.68
2022-09-11T11:48:52.773Z,13.91
2022-09-11T11:51:30.686Z,13.95
2022-09-11T11:54:27.091Z,14.37
2022-09-11T11:57:10.917Z,14.29
2022-09-11T12:00:09.721Z,14.61
2022-09-11T12:02:58.558Z,14.70
2022-09-11T12:05:36.279Z,14.95
2022-09-11T12:08:12.854Z,15.05
2022-09-11T12:10:57.447Z,15.28
2022-09-11T12:13:34.345Z,15.65
2022-09-11T12:16:11.443Z,15.96
2022-09-11T12:18:44.589Z,16.13
2022-09-11T12:21:26.275Z,16.16
2022-09-11T12:24:00.462Z,16.35
2022-09-11T12:26:32.811Z,16.75
2022-09-11T12:29:15.758Z,16.86
2022-09-11T12:31:52.402Z,16.89
2022-09-11T12:34:49.117Z,17.09
2022-09-11T12:37:35.058Z,16.82
2022-09-11T12:40:33.920Z,16.83
2022-09-11T12:43:29.900Z,17.13
2022-09-11T12:46:00.758Z,17.68
2022-09-11T12:48:40.136Z,18.25
2022-09-11T12:51:26.830Z,18.38
2022-09-11T12:54:04.176Z,18.01
2022-09-11T12:56:39.959Z,18.40
2022-09-11T12:59:12.231Z,18.93
2022-09-11T13:01:48.206Z,18.64
2022-09-11T13:04:23.828Z,18.70
2022-09-11T13:06:59.900Z,19.42
2022-09-11T13:09:34.532Z,19.67
2022-09-11T13:12:25.804Z,19.42
2022-09-11T13:15:00.059Z,19.72
2022-09-11T13:17:47.640Z,19.67
2022-09-11T13:20:18.339Z,20.06
2022-09-11T13:22:48.984Z,20.48
2022-09-11T13:25:20.738Z,20.28
2022-09-11T13:27:52.476Z,20.30
2022-09-11T13:30:26.003Z,20.78
2022-09-11T13:33:09.726Z,20.84
2022-09-11T13:35:41.136Z,20.86
2022-09-11T13:38:25.674Z,21.34
2022-09-11T13:41:05.141Z,20.67
2022-09-11T13:43:45.421Z,20.65
2022-09-11T13:46:18.523Z,20.99
2022-09-11T13:48:52.798Z,20.85
2022-09-11T13:51:28.555Z,21.10
2022-09-11T13:54:18.566Z,22.29
2022-09-11T13:57:34.509Z,22.18
2022-09-11T14:00:05.471Z,21.67
2022-09-11T14:02:53.725Z,21.77
2022-09-11T14:05:29.655Z,21.97
2022-09-11T14:08:09.040Z,21.56
2022-09-11T14:10:45.350Z,22.32
2022-09-11T14:13:19.245Z,22.99
2022-09-11T14:15:52.860Z,22.89
2022-09-11T14:18:35.328Z,23.30
2022-09-11T14:21:14.796Z,23.51
2022-09-11T14:23:53.769Z,23.21
2022-09-11T14:26:42.405Z,23.95
2022-09-11T14:29:29.292Z,24.70
2022-09-11T14:32:30.891Z,24.65
2022-09-11T14:35:08.293Z,25.09
2022-09-11T14:37:46.844Z,25.43
2022-09-11T14:40:20.180Z,25.18
2022-09-11T14:42:51.113Z,24.81
2022-09-11T14:45:27.357Z,24.36
2022-09-11T14:47:57.739Z,24.88
2022-09-11T14:50:27.716Z,24.70
2022-09-11T14:52:58.031Z,24.81
2022-09-11T14:55:28.387Z,25.76
2022-09-11T14:57:58.577Z,25.58
2022-09-11T15:00:28.539Z,26.13
2022-09-11T15:02:58.477Z,26.01
2022-09-11T15:05:29.446Z,26.16
2022-09-11T15:08:00.455Z,26.01
2022-09-11T15:10:31.010Z,25.76
2022-09-11T15:13:01.156Z,26.07
2022-09-11T15:15:32.732Z,26.00
2022-09-11T15:18:03.326Z,26.71
2022-09-11T15:20:33.596Z,26.51
2022-09-11T15:23:03.645Z,26.28
2022-09-11T15:25:34.016Z,26.25
2022-09-11T15:28:04.107Z,27.91
2022-09-11T15:30:34.613Z,27.81
2022-09-11T15:33:05.907Z,27.33
2022-09-11T15:35:36.090Z,27.61
2022-09-11T15:38:06.872Z,27.46
2022-09-11T15:40:37.709Z,28.23
2022-09-11T15:43:08.046Z,28.90
2022-09-11T15:45:44.862Z,28.02
2022-09-11T15:48:15.926Z,28.16
2022-09-11T15:50:46.226Z,28.22
2022-09-11T15:53:16.388Z,27.55
2022-09-11T15:55:46.670Z,27.78
2022-09-11T15:58:16.504Z,28.06
2022-09-11T16:00:48.182Z,28.52
2022-09-11T16:03:18.917Z,27.55
2022-09-11T16:05:49.372Z,27.11
2022-09-11T16:08:19.279Z,28.16
2022-09-11T16:10:49.162Z,27.91
2022-09-11T16:13:21.150Z,28.60
2022-09-11T16:15:51.742Z,29.80
2022-09-11T16:18:22.080Z,30.14
2022-09-11T16:21:02.313Z,29.21
2022-09-11T16:23:32.617Z,29.45
2022-09-11T16:26:07.793Z,30.14
2022-09-11T16:28:40.130Z,29.29
2022-09-11T16:31:11.095Z,29.26
2022-09-11T16:33:48.972Z,28.84
2022-09-11T16:36:23.844Z,28.04
2022-09-11T16:38:56.052Z,28.06
2022-09-11T16:41:26.796Z,27.48
2022-09-11T16:43:56.740Z,26.04
2022-09-11T16:46:28.324Z,25.22
2022-09-11T16:49:01.841Z,24.99
2022-09-11T16:51:32.999Z,24.80
2022-09-11T16:54:05.313Z,24.50
2022-09-11T16:56:35.527Z,24.21
2022-09-11T16:59:06.901Z,24.02
2022-09-11T17:01:38.257Z,24.12
2022-09-11T17:04:08.514Z,24.37
2022-09-11T17:06:38.659Z,24.89
2022-09-11T17:09:08.956Z,25.12
2022-09-11T17:11:39.523Z,25.04
2022-09-11T17:14:09.578Z,25.04
2022-09-11T17:16:40.306Z,24.53
2022-09-11T17:19:12.758Z,24.47
2022-09-11T17:21:43.287Z,24.30
2022-09-11T17:24:14.118Z,24.23
2022-09-11T17:26:44.360Z,23.90
2022-09-11T17:29:14.771Z,23.71
2022-09-11T17:31:45.008Z,23.52
2022-09-11T17:34:15.920Z,23.38
2022-09-11T17:36:46.426Z,23.17
2022-09-11T17:39:16.333Z,23.03
2022-09-11T17:41:46.480Z,22.99
2022-09-11T17:44:16.731Z,23.14
2022-09-11T17:46:47.170Z,23.17
2022-09-11T17:49:17.085Z,23.22
2022-09-11T17:51:47.528Z,23.34
2022-09-11T17:54:18.171Z,23.22
2022-09-11T17:56:48.730Z,22.97
2022-09-11T17:59:19.702Z,22.80
2022-09-11T18:01:51.161Z,22.76
2022-09-11T18:04:21.919Z,22.64
2022-09-11T18:06:52.480Z,22.48
2022-09-11T18:09:22.386Z,22.45
2022-09-11T18:11:56.170Z,22.38
2022-09-11T18:14:28.634Z,22.41
2022-09-11T18:16:58.704Z,22.48
2022-09-11T18:19:29.376Z,22.22
2022-09-11T18:22:00.729Z,22.19
2022-09-11T18:24:32.555Z,22.11
2022-09-11T18:27:03.535Z,21.95
2022-09-11T18:29:33.920Z,21.97
2022-09-11T18:32:04.819Z,22.01
2022-09-11T18:34:35.484Z,22.06
2022-09-11T18:37:05.985Z,22.14
2022-09-11T18:39:36.511Z,22.06
2022-09-11T18:42:08.266Z,21.90
2022-09-11T18:44:38.719Z,21.75
2022-09-11T18:47:09.464Z,21.73
2022-09-11T18:49:39.525Z,21.70
2022-09-11T18:52:10.008Z,21.60
2022-09-11T18:54:40.757Z,21.60
2022-09-11T18:57:11.206Z,21.57
2022-09-11T18:59:41.153Z,21.75
2022-09-11T19:02:12.198Z,22.02
2022-09-11T19:04:42.791Z,22.15
2022-09-11T19:07:14.655Z,22.08
2022-09-11T19:09:46.123Z,22.08
2022-09-11T19:12:17.690Z,21.93
2022-09-11T19:14:49.882Z,21.77
2022-09-11T19:17:20.791Z,21.63
2022-09-11T19:19:50.760Z,21.43
2022-09-11T19:22:23.977Z,21.26
2022-09-11T19:24:54.575Z,21.19
2022-09-11T19:27:27.481Z,21.13
2022-09-11T19:29:58.152Z,21.05
2022-09-11T19:32:28.076Z,20.96
2022-09-11T19:35:00.161Z,20.82
2022-09-11T19:37:30.933Z,20.75
2022-09-11T19:40:01.789Z,20.67
2022-09-11T19:42:32.350Z,20.52
2022-09-11T19:45:02.354Z,20.44
2022-09-11T19:47:32.247Z,20.45
2022-09-11T19:50:02.159Z,20.47
2022-09-11T19:52:33.277Z,20.41
2022-09-11T19:55:06.020Z,20.41
2022-09-11T19:57:36.143Z,20.44
2022-09-11T20:00:06.514Z,20.44
2022-09-11T20:02:38.007Z,20.44
2022-09-11T20:05:09.359Z,20.48
2022-09-11T20:07:39.628Z,20.45
2022-09-11T20:10:11.069Z,20.48
2022-09-11T20:12:41.767Z,20.49
2022-09-11T20:15:12.331Z,20.51
2022-09-11T20:17:45.591Z,20.54
2022-09-11T20:20:16.098Z,20.63
2022-09-11T20:22:46.487Z,20.69
2022-09-11T20:25:16.829Z,20.69
2022-09-11T20:27:46.692Z,20.63
2022-09-11T20:30:16.554Z,20.52
2022-09-11T20:32:46.556Z,20.49
2022-09-11T20:35:17.051Z,20.48
2022-09-11T20:37:48.089Z,20.37
2022-09-11T20:40:18.799Z,20.37
2022-09-11T20:42:48.815Z,20.33
2022-09-11T20:45:19.129Z,20.20
2022-09-11T20:47:52.943Z,20.12
2022-09-11T20:50:23.576Z,19.97
2022-09-11T20:52:53.889Z,19.80
2022-09-11T20:55:23.963Z,19.73
2022-09-11T20:57:53.842Z,19.58
2022-09-11T21:00:24.083Z,19.55
2022-09-11T21:02:53.897Z,19.49
2022-09-11T21:05:24.140Z,19.52
2022-09-11T21:07:54.110Z,19.45
2022-09-11T21:10:23.999Z,19.38
2022-09-11T21:12:53.865Z,19.38
2022-09-11T21:15:23.841Z,19.39
2022-09-11T21:17:54.281Z,19.28
2022-09-11T21:20:25.386Z,19.21
2022-09-11T21:22:55.508Z,19.24
2022-09-11T21:25:25.799Z,19.19
2022-09-11T21:27:55.881Z,19.18
2022-09-11T21:30:26.520Z,19.22
2022-09-11T21:32:56.466Z,19.31
2022-09-11T21:35:26.440Z,19.28
2022-09-11T21:37:56.278Z,19.24
2022-09-11T21:40:26.676Z,19.14
2022-09-11T21:42:56.591Z,19.18
2022-09-11T21:45:26.983Z,19.10
2022-09-11T21:47:57.088Z,19.04
2022-09-11T21:50:27.433Z,19.04
2022-09-11T21:52:57.412Z,18.98
2022-09-11T21:55:29.308Z,18.90
2022-09-11T21:58:01.281Z,18.80
2022-09-11T22:00:32.485Z,18.77
2022-09-11T22:03:02.949Z,18.76
2022-09-11T22:05:33.732Z,18.60
2022-09-11T22:08:04.461Z,18.57
2022-09-11T22:10:35.046Z,18.57
2022-09-11T22:13:05.151Z,18.55
2022-09-11T22:15:35.157Z,18.52
2022-09-11T22:18:05.460Z,18.47
2022-09-11T22:20:36.592Z,18.46
2022-09-11T22:23:07.949Z,18.30
2022-09-11T22:25:38.819Z,18.15
2022-09-11T22:28:09.051Z,17.98
2022-09-11T22:30:43.664Z,18.01
2022-09-11T22:33:14.350Z,18.10
2022-09-11T22:35:47.751Z,18.19
2022-09-11T22:38:19.667Z,18.19
2022-09-11T22:40:54.905Z,18.09
2022-09-11T22:43:25.479Z,17.98
2022-09-11T22:45:55.955Z,18.01
2022-09-11T22:48:26.176Z,17.94
2022-09-11T22:50:58.258Z,18.01
2022-09-11T22:53:30.420Z,17.99
2022-09-11T22:56:01.225Z,18.02
2022-09-11T22:58:32.887Z,17.94
2022-09-11T23:01:05.252Z,17.85
2022-09-11T23:03:35.461Z,17.92
2022-09-11T23:06:24.344Z,18.01
2022-09-11T23:08:56.322Z,18.02
2022-09-11T23:11:26.990Z,17.98
2022-09-11T23:13:57.672Z,18.09
2022-09-11T23:16:30.930Z,18.02
2022-09-11T23:19:03.660Z,17.94
2022-09-11T23:21:35.883Z,17.89
2022-09-11T23:24:07.541Z,17.84
2022-09-11T23:26:38.361Z,17.79
2022-09-11T23:29:08.534Z,17.79
2022-09-11T23:31:39.379Z,17.79
2022-09-11T23:34:12.350Z,17.77
2022-09-11T23:36:42.987Z,17.74
2022-09-11T23:39:13.198Z,17.66
2022-09-11T23:41:43.051Z,17.60
2022-09-11T23:44:13.143Z,17.57
2022-09-11T23:46:43.560Z,17.66
2022-09-11T23:49:14.502Z,17.70
2022-09-11T23:51:44.566Z,17.74
2022-09-11T23:54:14.451Z,18.06
2022-09-11T23:56:44.295Z,18.08
2022-09-11T23:59:14.229Z,18.13
